createdAt,value
2023-05-09T00:01:08.635Z,99046.38
2023-05-09T00:03:36.588Z,99034.81
2023-05-09T00:06:04.527Z,99033.56
2023-05-09T00:08:32.490Z,99029.19
2023-05-09T00:11:00.376Z,99027.31
2023-05-09T00:13:28.635Z,99029.31
2023-05-09T00:15:57.149Z,99024.59
2023-05-09T00:18:26.346Z,99021.06
2023-05-09T00:20:54.164Z,99017.50
2023-05-09T00:23:22.178Z,99017.13
2023-05-09T00:25:49.926Z,99012.75
2023-05-09T00:28:17.661Z,99010.78
2023-05-09T00:30:45.920Z,99016.34
2023-05-09T00:33:13.701Z,99008.72
2023-05-09T00:35:42.883Z,99006.75
2023-05-09T00:38:10.629Z,99004.38
2023-05-09T00:40:38.447Z,99000.78
2023-05-09T00:43:06.790Z,99000.78
2023-05-09T00:45:35.308Z,98992.03
2023-05-09T00:48:03.224Z,98999.19
2023-05-09T00:50:32.069Z,98989.66
2023-05-09T00:53:02.156Z,98987.72
2023-05-09T00:55:30.946Z,98983.72
2023-05-09T00:57:58.926Z,98991.28
2023-05-09T01:00:27.025Z,98985.72
2023-05-09T01:02:57.259Z,98980.13
2023-05-09T01:05:44.424Z,98993.84
2023-05-09T01:08:22.726Z,98982.44
2023-05-09T01:11:02.052Z,98977.16
2023-05-09T01:13:37.408Z,98976.41
2023-05-09T01:16:09.481Z,98978.75
2023-05-09T01:18:44.260Z,98978.41
2023-05-09T01:21:19.613Z,98974.06
2023-05-09T01:24:08.411Z,98956.22
2023-05-09T01:26:46.188Z,98960.19
2023-05-09T01:29:35.308Z,98960.19
2023-05-09T01:32:05.858Z,98970.91
2023-05-09T01:34:34.956Z,98972.50
2023-05-09T01:37:05.750Z,98967.38
2023-05-09T01:39:35.827Z,98962.19
2023-05-09T01:42:05.656Z,98957.34
2023-05-09T01:44:38.367Z,98958.16
2023-05-09T01:47:07.751Z,98969.22
2023-05-09T01:49:37.504Z,98968.69
2023-05-09T01:52:10.231Z,98970.66
2023-05-09T01:54:40.528Z,98964.59
2023-05-09T01:57:09.364Z,98959.31
2023-05-09T01:59:43.891Z,98956.00
2023-05-09T02:02:12.682Z,98961.16
2023-05-09T02:04:42.728Z,98960.88
2023-05-09T02:07:12.440Z,98958.22
2023-05-09T02:09:40.719Z,98961.19
2023-05-09T02:12:08.690Z,98949.00
2023-05-09T02:14:37.889Z,98956.22
2023-05-09T02:17:07.013Z,98949.44
2023-05-09T02:19:35.524Z,98955.78
2023-05-09T02:22:04.770Z,98950.28
2023-05-09T02:24:35.078Z,98947.09
2023-05-09T02:27:04.489Z,98943.13
2023-05-09T02:29:40.342Z,98940.72
2023-05-09T02:32:13.701Z,98945.66
2023-05-09T02:34:42.931Z,98940.41
2023-05-09T02:37:11.531Z,98945.44
2023-05-09T02:39:39.864Z,98945.25
2023-05-09T02:42:08.937Z,98945.22
2023-05-09T02:44:37.218Z,98936.47
2023-05-09T02:47:06.033Z,98936.28
2023-05-09T02:49:35.610Z,98939.63
2023-05-09T02:52:05.559Z,98927.84
2023-05-09T02:54:33.413Z,98929.81
2023-05-09T02:57:01.216Z,98925.63
2023-05-09T02:59:29.166Z,98929.25
2023-05-09T03:01:59.455Z,98919.81
2023-05-09T03:04:27.405Z,98929.28
2023-05-09T03:06:56.536Z,98930.63
2023-05-09T03:09:27.269Z,98924.47
2023-05-09T03:11:56.901Z,98930.00
2023-05-09T03:14:24.941Z,98923.75
2023-05-09T03:16:53.026Z,98914.97
2023-05-09T03:19:29.291Z,98917.75
2023-05-09T03:21:58.522Z,98928.69
2023-05-09T03:24:28.142Z,98921.97
2023-05-09T03:26:56.067Z,98927.16
2023-05-09T03:29:23.917Z,98917.75
2023-05-09T03:31:51.881Z,98903.56
2023-05-09T03:34:19.679Z,98900.09
2023-05-09T03:36:47.409Z,98897.44
2023-05-09T03:39:17.802Z,98902.22
2023-05-09T03:41:49.142Z,98899.44
2023-05-09T03:44:17.004Z,98893.88
2023-05-09T03:46:44.895Z,98901.44
2023-05-09T03:49:13.566Z,98899.84
2023-05-09T03:51:42.278Z,98900.25
2023-05-09T03:54:14.757Z,98907.38
2023-05-09T03:56:44.201Z,98905.38
2023-05-09T03:59:12.050Z,98903.44
2023-05-09T04:01:40.919Z,98900.22
2023-05-09T04:04:09.607Z,98892.97
2023-05-09T04:06:37.990Z,98896.97
2023-05-09T04:09:07.976Z,98889.88
2023-05-09T04:11:35.859Z,98890.97
2023-05-09T04:14:07.335Z,98889.72
2023-05-09T04:16:37.220Z,98895.66
2023-05-09T04:19:07.070Z,98884.94
2023-05-09T04:21:36.537Z,98889.63
2023-05-09T04:24:05.807Z,98892.09
2023-05-09T04:26:43.358Z,98888.81
2023-05-09T04:29:16.073Z,98899.97
2023-05-09T04:31:49.035Z,98899.09
2023-05-09T04:34:17.499Z,98908.47
2023-05-09T04:36:45.667Z,98909.03
2023-05-09T04:39:13.850Z,98898.72
2023-05-09T04:41:49.890Z,98900.63
2023-05-09T04:44:19.839Z,98891.78
2023-05-09T04:46:47.753Z,98904.16
2023-05-09T04:49:15.629Z,98907.25
2023-05-09T04:51:43.409Z,98905.78
2023-05-09T04:54:11.428Z,98904.28
2023-05-09T04:56:41.286Z,98908.03
2023-05-09T04:59:09.116Z,98904.88
2023-05-09T05:01:38.479Z,98898.38
2023-05-09T05:04:06.540Z,98893.06
2023-05-09T05:06:34.520Z,98892.97
2023-05-09T05:09:02.444Z,98896.44
2023-05-09T05:11:30.172Z,98900.84
2023-05-09T05:13:58.402Z,98899.03
2023-05-09T05:16:26.311Z,98899.78
2023-05-09T05:18:55.687Z,98896.78
2023-05-09T05:21:24.012Z,98898.38
2023-05-09T05:23:51.814Z,98892.94
2023-05-09T05:26:21.018Z,98885.91
2023-05-09T05:28:49.474Z,98889.09
2023-05-09T05:31:17.421Z,98889.88
2023-05-09T05:33:45.375Z,98888.28
2023-05-09T05:36:14.577Z,98884.75
2023-05-09T05:38:43.215Z,98880.34
2023-05-09T05:41:11.264Z,98889.31
2023-05-09T05:43:40.622Z,98893.28
2023-05-09T05:46:08.972Z,98891.66
2023-05-09T05:48:36.898Z,98890.47
2023-05-09T05:51:04.801Z,98883.31
2023-05-09T05:53:34.925Z,98879.31
2023-05-09T05:56:02.873Z,98875.31
2023-05-09T05:58:32.609Z,98871.44
2023-05-09T06:01:00.856Z,98867.06
2023-05-09T06:03:28.833Z,98871.06
2023-05-09T06:06:01.016Z,98882.63
2023-05-09T06:08:31.634Z,98874.28
2023-05-09T06:11:01.849Z,98875.63
2023-05-09T06:13:29.712Z,98875.56
2023-05-09T06:16:15.070Z,98860.53
2023-05-09T06:18:46.256Z,98867.28
2023-05-09T06:21:14.143Z,98853.34
2023-05-09T06:23:56.941Z,98854.94
2023-05-09T06:26:31.196Z,98852.56
2023-05-09T06:28:59.123Z,98848.19
2023-05-09T06:31:44.717Z,98844.47
2023-05-09T06:34:39.085Z,98838.22
2023-05-09T06:37:07.196Z,98845.81
2023-05-09T06:39:35.083Z,98837.84
2023-05-09T06:42:04.345Z,98832.63
2023-05-09T06:44:33.872Z,98838.53
2023-05-09T06:47:01.823Z,98834.28
2023-05-09T06:49:29.670Z,98835.03
2023-05-09T06:51:57.555Z,98833.75
2023-05-09T06:54:25.443Z,98827.47
2023-05-09T06:56:53.477Z,98827.44
2023-05-09T06:59:22.672Z,98821.41
2023-05-09T07:01:50.570Z,98823.28
2023-05-09T07:04:18.446Z,98820.38
2023-05-09T07:06:46.363Z,98815.28
2023-05-09T07:09:15.325Z,98809.34
2023-05-09T07:11:43.299Z,98818.84
2023-05-09T07:14:11.140Z,98804.13
2023-05-09T07:16:40.352Z,98802.91
2023-05-09T07:19:08.242Z,98813.22
2023-05-09T07:21:36.062Z,98799.59
2023-05-09T07:24:03.924Z,98794.06
2023-05-09T07:26:31.914Z,98786.88
2023-05-09T07:28:59.880Z,98787.41
2023-05-09T07:31:27.741Z,98774.75
2023-05-09T07:33:56.969Z,98772.13
2023-05-09T07:36:24.858Z,98766.94
2023-05-09T07:38:53.505Z,98759.72
2023-05-09T07:41:22.357Z,98758.88
2023-05-09T07:43:50.170Z,98766.41
2023-05-09T07:46:18.199Z,98755.25
2023-05-09T07:48:46.096Z,98743.06
2023-05-09T07:51:15.636Z,98741.06
2023-05-09T07:53:43.461Z,98736.44
2023-05-09T07:56:13.593Z,98724.66
2023-05-09T07:58:41.398Z,98729.78
2023-05-09T08:01:09.173Z,98728.66
2023-05-09T08:03:37.055Z,98724.56
2023-05-09T08:06:05.226Z,98718.69
2023-05-09T08:08:34.556Z,98714.66
2023-05-09T08:11:02.359Z,98701.50
2023-05-09T08:13:30.242Z,98708.47
2023-05-09T08:15:58.359Z,98711.53
2023-05-09T08:18:26.543Z,98704.66
2023-05-09T08:20:54.401Z,98695.97
2023-05-09T08:23:22.205Z,98696.47
2023-05-09T08:25:54.112Z,98692.53
2023-05-09T08:28:24.123Z,98678.72
2023-05-09T08:30:52.200Z,98685.25
2023-05-09T08:33:20.227Z,98690.03
2023-05-09T08:35:51.785Z,98676.72
2023-05-09T08:38:20.320Z,98662.28
2023-05-09T08:40:48.712Z,98653.47
2023-05-09T08:43:19.226Z,98655.69
2023-05-09T08:45:49.621Z,98651.72
2023-05-09T08:48:18.131Z,98658.28
2023-05-09T08:50:46.333Z,98648.31
2023-05-09T08:53:14.759Z,98650.69
2023-05-09T08:55:42.926Z,98660.03
2023-05-09T08:58:11.019Z,98661.41
2023-05-09T09:00:42.322Z,98656.34
2023-05-09T09:03:10.206Z,98659.75
2023-05-09T09:05:42.218Z,98656.72
2023-05-09T09:08:11.826Z,98658.34
2023-05-09T09:10:42.183Z,98654.19
2023-05-09T09:13:12.384Z,98639.38
2023-05-09T09:15:44.086Z,98635.22
2023-05-09T09:18:13.928Z,98630.38
2023-05-09T09:20:46.049Z,98636.09
2023-05-09T09:23:16.225Z,98630.53
2023-05-09T09:25:47.191Z,98629.91
2023-05-09T09:28:15.009Z,98617.66
2023-05-09T09:30:49.174Z,98619.34
2023-05-09T09:33:21.300Z,98612.94
2023-05-09T09:35:50.948Z,98607.50
2023-05-09T09:38:19.726Z,98596.72
2023-05-09T09:40:53.904Z,98591.75
2023-05-09T09:43:21.876Z,98589.69
2023-05-09T09:45:51.695Z,98592.34
2023-05-09T09:48:19.706Z,98582.53
2023-05-09T09:50:48.913Z,98584.28
2023-05-09T09:53:16.764Z,98570.19
2023-05-09T09:55:51.928Z,98568.97
2023-05-09T09:58:21.878Z,98567.56
2023-05-09T10:01:05.733Z,98562.56
2023-05-09T10:03:37.237Z,98552.66
2023-05-09T10:06:06.682Z,98555.38
2023-05-09T10:08:34.437Z,98551.88
2023-05-09T10:11:02.766Z,98550.13
2023-05-09T10:13:30.764Z,98546.81
2023-05-09T10:16:00.688Z,98542.03
2023-05-09T10:18:31.136Z,98535.06
2023-05-09T10:21:03.548Z,98526.25
2023-05-09T10:23:32.686Z,98530.63
2023-05-09T10:26:08.256Z,98519.06
2023-05-09T10:28:39.837Z,98520.91
2023-05-09T10:31:14.618Z,98518.66
2023-05-09T10:33:47.086Z,98519.31
2023-05-09T10:36:17.625Z,98515.91
2023-05-09T10:38:46.134Z,98505.38
2023-05-09T10:41:15.584Z,98499.09
2023-05-09T10:43:44.167Z,98500.47
2023-05-09T10:46:13.995Z,98495.06
2023-05-09T10:48:42.774Z,98494.69
2023-05-09T10:51:11.471Z,98488.88
2023-05-09T10:53:44.540Z,98480.25
2023-05-09T10:56:23.987Z,98481.50
2023-05-09T10:58:51.990Z,98464.53
2023-05-09T11:01:34.517Z,98467.81
2023-05-09T11:04:03.930Z,98461.81
2023-05-09T11:06:49.288Z,98461.06
2023-05-09T11:09:28.387Z,98454.00
2023-05-09T11:11:58.629Z,98446.94
2023-05-09T11:14:34.435Z,98442.38
2023-05-09T11:17:06.495Z,98427.56
2023-05-09T11:19:38.902Z,98429.88
2023-05-09T11:22:14.996Z,98425.25
2023-05-09T11:24:47.321Z,98417.25
2023-05-09T11:27:21.239Z,98410.47
2023-05-09T11:29:52.632Z,98405.00
2023-05-09T11:32:22.968Z,98394.59
2023-05-09T11:34:51.155Z,98395.81
2023-05-09T11:37:19.256Z,98390.41
2023-05-09T11:39:58.151Z,98389.03
2023-05-09T11:42:26.880Z,98388.84
2023-05-09T11:44:55.125Z,98389.44
2023-05-09T11:47:24.909Z,98374.75
2023-05-09T11:49:53.011Z,98373.97
2023-05-09T11:52:21.784Z,98372.50
2023-05-09T11:54:50.189Z,98371.16
2023-05-09T11:57:18.263Z,98361.28
2023-05-09T11:59:46.471Z,98355.34
2023-05-09T12:02:15.211Z,98347.28
2023-05-09T12:04:44.588Z,98344.69
2023-05-09T12:07:16.587Z,98351.59
2023-05-09T12:09:44.825Z,98343.97
2023-05-09T12:12:14.392Z,98342.28
2023-05-09T12:14:42.773Z,98340.06
2023-05-09T12:17:10.687Z,98329.94
2023-05-09T12:19:38.357Z,98338.00
2023-05-09T12:22:07.593Z,98329.44
2023-05-09T12:24:37.557Z,98327.88
2023-05-09T12:27:07.880Z,98314.72
2023-05-09T12:29:36.369Z,98309.63
2023-05-09T12:32:04.402Z,98308.78
2023-05-09T12:34:33.443Z,98297.63
2023-05-09T12:37:03.596Z,98296.25
2023-05-09T12:39:33.040Z,98299.06
2023-05-09T12:42:02.338Z,98288.81
2023-05-09T12:44:30.491Z,98287.66
2023-05-09T12:47:00.015Z,98289.56
2023-05-09T12:49:28.377Z,98274.31
2023-05-09T12:51:58.427Z,98268.84
2023-05-09T12:54:27.772Z,98269.78
2023-05-09T12:56:59.117Z,98260.91
2023-05-09T12:59:28.844Z,98257.84
2023-05-09T13:01:58.805Z,98251.94
2023-05-09T13:04:29.017Z,98245.75
2023-05-09T13:06:59.875Z,98238.22
2023-05-09T13:09:28.465Z,98240.19
2023-05-09T13:11:57.673Z,98235.34
2023-05-09T13:14:25.468Z,98231.94
2023-05-09T13:16:53.410Z,98237.66
2023-05-09T13:19:21.473Z,98225.25
2023-05-09T13:21:49.593Z,98223.94
2023-05-09T13:24:22.741Z,98215.06
2023-05-09T13:26:51.020Z,98218.31
2023-05-09T13:29:20.213Z,98210.03
2023-05-09T13:31:48.194Z,98207.53
2023-05-09T13:34:16.071Z,98207.47
2023-05-09T13:36:43.897Z,98206.84
2023-05-09T13:39:11.827Z,98195.97
2023-05-09T13:41:39.651Z,98201.22
2023-05-09T13:44:07.613Z,98189.78
2023-05-09T13:46:37.198Z,98190.31
2023-05-09T13:49:05.061Z,98188.31
2023-05-09T13:51:33.804Z,98182.94
2023-05-09T13:54:03.153Z,98187.91
2023-05-09T13:56:30.956Z,98192.63
2023-05-09T13:58:58.883Z,98178.72
2023-05-09T14:01:27.023Z,98179.84
2023-05-09T14:03:56.476Z,98167.81
2023-05-09T14:06:24.317Z,98177.72
2023-05-09T14:08:52.250Z,98172.47
2023-05-09T14:11:20.862Z,98157.97
2023-05-09T14:13:48.672Z,98153.41
2023-05-09T14:16:16.752Z,98151.78
2023-05-09T14:18:44.577Z,98152.75
2023-05-09T14:21:13.937Z,98145.16
2023-05-09T14:23:42.662Z,98141.63
2023-05-09T14:26:10.473Z,98138.88
2023-05-09T14:28:38.277Z,98137.47
2023-05-09T14:31:06.272Z,98137.72
2023-05-09T14:33:35.971Z,98128.84
2023-05-09T14:36:04.245Z,98133.34
2023-05-09T14:38:34.279Z,98129.84
2023-05-09T14:41:02.713Z,98122.88
2023-05-09T14:43:33.528Z,98123.81
2023-05-09T14:46:01.242Z,98120.41
2023-05-09T14:48:29.007Z,98119.78
2023-05-09T14:50:57.047Z,98114.56
2023-05-09T14:53:25.196Z,98111.63
2023-05-09T14:55:54.343Z,98107.34
2023-05-09T14:58:22.642Z,98106.75
2023-05-09T15:00:50.724Z,98106.66
2023-05-09T15:03:18.581Z,98105.53
2023-05-09T15:05:46.372Z,98101.44
2023-05-09T15:08:14.563Z,98102.34
2023-05-09T15:10:42.469Z,98090.31
2023-05-09T15:13:11.613Z,98087.81
2023-05-09T15:15:40.507Z,98094.59
2023-05-09T15:18:10.067Z,98088.75
2023-05-09T15:20:38.071Z,98089.69
2023-05-09T15:23:06.704Z,98089.13
2023-05-09T15:25:34.646Z,98101.41
2023-05-09T15:30:33.423Z,98090.28
2023-05-09T15:33:01.764Z,98087.34
2023-05-09T15:35:29.731Z,98084.06
2023-05-09T15:37:57.721Z,98084.16
2023-05-09T15:40:25.893Z,98083.28
2023-05-09T15:45:21.563Z,98081.41
2023-05-09T15:47:50.832Z,98083.91
2023-05-09T15:50:19.044Z,98071.13
2023-05-09T15:52:46.928Z,98072.78
2023-05-09T15:55:14.755Z,98064.41
2023-05-09T15:57:42.617Z,98056.06
2023-05-09T16:00:12.301Z,98055.53
2023-05-09T16:02:41.633Z,98045.38
2023-05-09T16:05:11.098Z,98053.66
2023-05-09T16:07:39.060Z,98048.66
2023-05-09T16:10:08.099Z,98045.06
2023-05-09T16:12:36.332Z,98045.63
2023-05-09T16:15:04.410Z,98036.88
2023-05-09T16:17:32.486Z,98038.94
2023-05-09T16:20:00.416Z,98031.00
2023-05-09T16:22:29.543Z,98032.50
2023-05-09T16:24:59.606Z,98026.13
2023-05-09T16:27:27.426Z,98027.00
2023-05-09T16:29:55.157Z,98016.00
2023-05-09T16:32:22.950Z,98021.16
2023-05-09T16:34:50.657Z,98011.22
2023-05-09T16:37:19.116Z,98014.47
2023-05-09T16:39:48.344Z,98019.41
2023-05-09T16:42:16.030Z,98008.16
2023-05-09T16:44:43.901Z,98017.16
2023-05-09T16:47:11.810Z,98006.00
2023-05-09T16:49:39.527Z,98004.59
2023-05-09T16:52:07.374Z,98005.03
2023-05-09T16:54:35.177Z,98005.19
2023-05-09T16:57:04.512Z,98003.53
2023-05-09T16:59:32.865Z,98003.22
2023-05-09T17:02:00.680Z,98002.06
2023-05-09T17:04:31.658Z,97996.16
2023-05-09T17:06:59.444Z,97998.75
2023-05-09T17:09:27.954Z,98007.34
2023-05-09T17:11:55.719Z,98000.84
2023-05-09T17:14:24.820Z,98017.56
2023-05-09T17:16:53.043Z,98017.66
2023-05-09T17:19:23.212Z,98017.56
2023-05-09T17:21:50.954Z,98036.06
2023-05-09T17:24:18.767Z,98033.63
2023-05-09T17:26:46.802Z,98037.53
2023-05-09T17:29:15.754Z,98035.41
2023-05-09T17:31:44.951Z,98035.59
2023-05-09T17:34:12.719Z,98058.41
2023-05-09T17:36:40.505Z,98066.06
2023-05-09T17:39:08.286Z,98069.94
2023-05-09T17:41:36.066Z,98073.75
2023-05-09T17:44:04.032Z,98083.94
2023-05-09T17:46:32.903Z,98075.22
2023-05-09T17:49:02.060Z,98087.88
2023-05-09T17:51:29.859Z,98087.50
2023-05-09T17:53:57.654Z,98095.41
2023-05-09T17:56:25.585Z,98097.09
2023-05-09T17:58:53.738Z,98100.31
2023-05-09T18:01:23.921Z,98096.94
2023-05-09T18:03:51.910Z,98094.63
2023-05-09T18:06:21.149Z,98097.19
2023-05-09T18:08:49.155Z,98100.97
2023-05-09T18:11:16.954Z,98105.16
2023-05-09T18:13:44.811Z,98108.16
2023-05-09T18:16:12.643Z,98119.25
2023-05-09T18:18:40.489Z,98117.00
2023-05-09T18:21:09.530Z,98112.56
2023-05-09T18:23:38.924Z,98109.06
2023-05-09T18:26:06.665Z,98107.16
2023-05-09T18:28:39.304Z,98111.84
2023-05-09T18:31:09.404Z,98112.66
2023-05-09T18:33:39.030Z,98100.63
2023-05-09T18:36:08.859Z,98097.22
2023-05-09T18:38:39.295Z,98101.16
2023-05-09T18:41:08.462Z,98110.97
2023-05-09T18:43:38.668Z,98117.66
2023-05-09T18:46:07.513Z,98121.63
2023-05-09T18:48:35.478Z,98127.56
2023-05-09T18:51:03.344Z,98126.00
2023-05-09T18:53:31.099Z,98127.59
2023-05-09T18:56:02.183Z,98122.31
2023-05-09T18:58:30.844Z,98123.31
2023-05-09T19:00:58.813Z,98126.56
2023-05-09T19:03:27.185Z,98123.41
2023-05-09T19:05:59.162Z,98140.19
2023-05-09T19:08:29.201Z,98135.28
2023-05-09T19:10:57.085Z,98140.00
2023-05-09T19:13:26.480Z,98140.69
2023-05-09T19:15:54.352Z,98150.28
2023-05-09T19:18:22.080Z,98144.13
2023-05-09T19:20:52.125Z,98145.00
2023-05-09T19:23:23.289Z,98146.78
2023-05-09T19:25:53.864Z,98161.69
2023-05-09T19:28:22.919Z,98152.19
2023-05-09T19:30:52.162Z,98145.41
2023-05-09T19:33:20.420Z,98150.59
2023-05-09T19:35:48.196Z,98148.28
2023-05-09T19:38:16.958Z,98152.19
2023-05-09T19:40:44.890Z,98154.88
2023-05-09T19:43:12.745Z,98151.66
2023-05-09T19:45:40.532Z,98156.03
2023-05-09T19:48:15.074Z,98159.44
2023-05-09T19:50:45.104Z,98160.06
2023-05-09T19:53:12.925Z,98160.53
2023-05-09T19:55:41.097Z,98155.88
2023-05-09T19:58:08.890Z,98163.44
2023-05-09T20:00:38.781Z,98170.56
2023-05-09T20:03:10.808Z,98162.41
2023-05-09T20:05:38.859Z,98159.47
2023-05-09T20:08:06.826Z,98166.09
2023-05-09T20:10:34.680Z,98164.47
2023-05-09T20:13:04.335Z,98158.72
2023-05-09T20:15:32.215Z,98162.72
2023-05-09T20:18:03.338Z,98164.59
2023-05-09T20:20:35.637Z,98154.84
2023-05-09T20:23:03.433Z,98155.97
2023-05-09T20:25:31.534Z,98142.69
2023-05-09T20:27:59.304Z,98146.94
2023-05-09T20:30:27.225Z,98149.16
2023-05-09T20:32:55.056Z,98152.22
2023-05-09T20:35:22.940Z,98137.81
2023-05-09T20:37:52.126Z,98141.97
2023-05-09T20:40:20.161Z,98141.88
2023-05-09T20:42:47.861Z,98145.34
2023-05-09T20:45:15.808Z,98151.09
2023-05-09T20:47:43.693Z,98153.94
2023-05-09T20:50:12.039Z,98160.09
2023-05-09T20:52:39.896Z,98161.38
2023-05-09T20:55:10.020Z,98157.78
2023-05-09T20:57:37.737Z,98154.28
2023-05-09T21:00:07.547Z,98147.31
2023-05-09T21:02:35.768Z,98147.56
2023-05-09T21:05:03.799Z,98134.91
2023-05-09T21:07:31.588Z,98124.44
2023-05-09T21:09:59.490Z,98123.22
2023-05-09T21:12:30.488Z,98132.78
2023-05-09T21:14:58.249Z,98124.59
2023-05-09T21:17:26.118Z,98120.69
2023-05-09T21:19:54.125Z,98121.56
2023-05-09T21:22:21.910Z,98124.19
2023-05-09T21:24:50.771Z,98139.72
2023-05-09T21:27:18.607Z,98141.22
2023-05-09T21:29:49.303Z,98146.81
2023-05-09T21:32:17.199Z,98130.03
2023-05-09T21:34:45.106Z,98121.44
2023-05-09T21:37:12.945Z,98129.09
2023-05-09T21:39:43.339Z,98125.94
2023-05-09T21:42:11.153Z,98121.91
2023-05-09T21:44:38.838Z,98115.06
2023-05-09T21:47:08.259Z,98109.78
2023-05-09T21:49:36.139Z,98114.16
2023-05-09T21:52:04.201Z,98121.63
2023-05-09T21:54:31.927Z,98122.13
2023-05-09T21:56:59.815Z,98123.78
2023-05-09T21:59:28.131Z,98124.97
2023-05-09T22:01:55.961Z,98122.53
2023-05-09T22:04:25.087Z,98127.97
2023-05-09T22:06:52.797Z,98139.72
2023-05-09T22:09:20.912Z,98137.22
2023-05-09T22:11:48.576Z,98138.19
2023-05-09T22:14:16.391Z,98133.31
2023-05-09T22:16:44.197Z,98141.41
2023-05-09T22:19:12.216Z,98126.56
2023-05-09T22:21:41.394Z,98150.22
2023-05-09T22:24:09.343Z,98139.84
2023-05-09T22:26:37.158Z,98126.38
2023-05-09T22:29:04.997Z,98129.81
2023-05-09T22:31:32.884Z,98123.44
2023-05-09T22:34:03.587Z,98122.44
2023-05-09T22:36:32.082Z,98123.13
2023-05-09T22:39:01.460Z,98132.66
2023-05-09T22:41:29.303Z,98137.66
2023-05-09T22:43:57.288Z,98151.91
2023-05-09T22:46:25.117Z,98159.47
2023-05-09T22:48:52.950Z,98168.56
2023-05-09T22:51:20.729Z,98166.16
2023-05-09T22:53:48.479Z,98173.31
2023-05-09T22:56:17.598Z,98187.19
2023-05-09T22:58:45.351Z,98179.25
2023-05-09T23:01:13.108Z,98176.88
2023-05-09T23:03:44.204Z,98187.13
2023-05-09T23:06:12.275Z,98178.47
2023-05-09T23:08:40.088Z,98179.25
2023-05-09T23:11:07.842Z,98193.91
2023-05-09T23:13:37.109Z,98189.91
2023-05-09T23:16:05.053Z,98185.16
2023-05-09T23:18:32.841Z,98196.63
2023-05-09T23:21:00.634Z,98204.09
2023-05-09T23:23:28.838Z,98209.22
2023-05-09T23:25:56.687Z,98214.00
2023-05-09T23:28:25.318Z,98221.84
2023-05-09T23:30:55.097Z,98211.22
2023-05-09T23:33:22.935Z,98208.81
2023-05-09T23:35:50.802Z,98201.34
2023-05-09T23:38:18.601Z,98201.31
2023-05-09T23:40:46.913Z,98196.59
2023-05-09T23:43:15.022Z,98208.81
2023-05-09T23:45:42.767Z,98203.25
2023-05-09T23:48:11.850Z,98196.94
2023-05-09T23:50:39.667Z,98198.53
2023-05-09T23:53:07.491Z,98196.06
2023-05-09T23:55:35.206Z,98202.03
2023-05-09T23:58:03.335Z,98194.84
